sensor_id;sensor_type;location;lat;lon;timestamp;pressure;altitude;pressure_sealevel;temperature;humidity
36598;BME280;22607;49.550;11.940;2022-12-05T00:01:52;96523.50;;;4.88;100.00
36598;BME280;22607;49.550;11.940;2022-12-05T00:04:27;96525.38;;;4.96;100.00
36598;BME280;22607;49.550;11.940;2022-12-05T00:06:54;96533.09;;;4.78;100.00
36598;BME280;22607;49.550;11.940;2022-12-05T00:09:20;96530.34;;;4.89;100.00
36598;BME280;22607;49.550;11.940;2022-12-05T00:11:47;96532.00;;;4.80;100.00
36598;BME280;22607;49.550;11.940;2022-12-05T00:14:13;96535.94;;;4.84;100.00
36598;BME280;22607;49.550;11.940;2022-12-05T00:16:40;96539.66;;;4.82;100.00
36598;BME280;22607;49.550;11.940;2022-12-05T00:19:07;96531.44;;;4.86;100.00
36598;BME280;22607;49.550;11.940;2022-12-05T00:21:34;96540.44;;;4.92;100.00
36598;BME280;22607;49.550;11.940;2022-12-05T00:24:01;96539.78;;;4.90;100.00
36598;BME280;22607;49.550;11.940;2022-12-05T00:26:29;96547.97;;;4.95;100.00
36598;BME280;22607;49.550;11.940;2022-12-05T00:28:56;96545.88;;;4.99;100.00
36598;BME280;22607;49.550;11.940;2022-12-05T00:31:23;96553.88;;;4.97;100.00
36598;BME280;22607;49.550;11.940;2022-12-05T00:33:50;96550.69;;;5.04;100.00
36598;BME280;22607;49.550;11.940;2022-12-05T00:36:17;96554.91;;;5.05;100.00
36598;BME280;22607;49.550;11.940;2022-12-05T00:38:48;96560.97;;;4.95;100.00
36598;BME280;22607;49.550;11.940;2022-12-05T00:41:17;96553.56;;;5.01;100.00
36598;BME280;22607;49.550;11.940;2022-12-05T00:43:57;96559.59;;;5.01;100.00
36598;BME280;22607;49.550;11.940;2022-12-05T00:46:24;96565.13;;;4.88;100.00
36598;BME280;22607;49.550;11.940;2022-12-05T00:48:52;96563.91;;;4.82;100.00
36598;BME280;22607;49.550;11.940;2022-12-05T00:51:26;96562.19;;;5.01;100.00
36598;BME280;22607;49.550;11.940;2022-12-05T00:53:54;96562.34;;;4.99;100.00
36598;BME280;22607;49.550;11.940;2022-12-05T00:56:23;96564.28;;;4.97;100.00
36598;BME280;22607;49.550;11.940;2022-12-05T00:58:51;96572.63;;;4.91;100.00
36598;BME280;22607;49.550;11.940;2022-12-05T01:01:25;96571.78;;;5.01;100.00
36598;BME280;22607;49.550;11.940;2022-12-05T01:03:53;96573.88;;;4.87;100.00
36598;BME280;22607;49.550;11.940;2022-12-05T01:06:24;96568.94;;;4.94;100.00
36598;BME280;22607;49.550;11.940;2022-12-05T01:08:52;96571.59;;;4.84;100.00
36598;BME280;22607;49.550;11.940;2022-12-05T01:11:18;96575.94;;;4.83;100.00
36598;BME280;22607;49.550;11.940;2022-12-05T01:13:45;96571.28;;;4.87;100.00
36598;BME280;22607;49.550;11.940;2022-12-05T01:16:20;96574.47;;;4.81;100.00
36598;BME280;22607;49.550;11.940;2022-12-05T01:18:47;96572.53;;;4.83;100.00
36598;BME280;22607;49.550;11.940;2022-12-05T01:21:14;96584.59;;;4.84;100.00
36598;BME280;22607;49.550;11.940;2022-12-05T01:23:40;96585.53;;;4.83;100.00
36598;BME280;22607;49.550;11.940;2022-12-05T01:26:07;96584.78;;;5.01;100.00
36598;BME280;22607;49.550;11.940;2022-12-05T01:28:34;96592.00;;;4.79;100.00
36598;BME280;22607;49.550;11.940;2022-12-05T01:31:19;96581.28;;;4.82;100.00
36598;BME280;22607;49.550;11.940;2022-12-05T01:33:47;96595.69;;;4.76;100.00
36598;BME280;22607;49.550;11.940;2022-12-05T01:36:16;96598.00;;;4.89;100.00
36598;BME280;22607;49.550;11.940;2022-12-05T01:38:42;96601.16;;;4.83;100.00
36598;BME280;22607;49.550;11.940;2022-12-05T01:41:19;96593.09;;;4.76;100.00
36598;BME280;22607;49.550;11.940;2022-12-05T01:43:53;96591.19;;;4.78;100.00
36598;BME280;22607;49.550;11.940;2022-12-05T01:46:20;96597.44;;;4.85;100.00
36598;BME280;22607;49.550;11.940;2022-12-05T01:48:46;96600.59;;;4.89;100.00
36598;BME280;22607;49.550;11.940;2022-12-05T01:51:13;96603.59;;;4.84;100.00
36598;BME280;22607;49.550;11.940;2022-12-05T01:53:39;96603.19;;;4.89;100.00
36598;BME280;22607;49.550;11.940;2022-12-05T01:56:06;96607.56;;;4.89;100.00
36598;BME280;22607;49.550;11.940;2022-12-05T01:58:34;96606.78;;;4.88;100.00
36598;BME280;22607;49.550;11.940;2022-12-05T02:01:02;96601.25;;;4.91;100.00
36598;BME280;22607;49.550;11.940;2022-12-05T02:03:28;96604.56;;;4.93;100.00
36598;BME280;22607;49.550;11.940;2022-12-05T02:05:55;96614.81;;;4.95;100.00
36598;BME280;22607;49.550;11.940;2022-12-05T02:08:26;96626.63;;;4.89;100.00
36598;BME280;22607;49.550;11.940;2022-12-05T02:10:53;96619.31;;;5.03;100.00
36598;BME280;22607;49.550;11.940;2022-12-05T02:15:59;96629.16;;;5.09;100.00
36598;BME280;22607;49.550;11.940;2022-12-05T02:21:30;96633.13;;;5.03;100.00
36598;BME280;22607;49.550;11.940;2022-12-05T02:31:57;96642.19;;;4.99;100.00
36598;BME280;22607;49.550;11.940;2022-12-05T02:36:59;96639.78;;;4.88;100.00
36598;BME280;22607;49.550;11.940;2022-12-05T02:42:02;96642.09;;;4.91;100.00
36598;BME280;22607;49.550;11.940;2022-12-05T02:44:36;96641.16;;;4.82;100.00
36598;BME280;22607;49.550;11.940;2022-12-05T02:47:06;96639.25;;;4.74;100.00
36598;BME280;22607;49.550;11.940;2022-12-05T02:49:35;96646.09;;;4.75;100.00
36598;BME280;22607;49.550;11.940;2022-12-05T02:52:02;96647.06;;;4.74;100.00
36598;BME280;22607;49.550;11.940;2022-12-05T02:54:35;96641.84;;;4.84;100.00
36598;BME280;22607;49.550;11.940;2022-12-05T02:57:02;96641.00;;;4.83;100.00
36598;BME280;22607;49.550;11.940;2022-12-05T02:59:29;96651.28;;;4.85;100.00
36598;BME280;22607;49.550;11.940;2022-12-05T03:01:55;96655.78;;;4.83;100.00
36598;BME280;22607;49.550;11.940;2022-12-05T03:04:23;96655.13;;;4.71;100.00
36598;BME280;22607;49.550;11.940;2022-12-05T03:06:50;96652.13;;;4.76;100.00
36598;BME280;22607;49.550;11.940;2022-12-05T03:09:33;96654.69;;;4.85;100.00
36598;BME280;22607;49.550;11.940;2022-12-05T03:12:05;96664.81;;;4.89;100.00
36598;BME280;22607;49.550;11.940;2022-12-05T03:14:36;96655.53;;;4.86;100.00
36598;BME280;22607;49.550;11.940;2022-12-05T03:17:05;96657.53;;;5.02;100.00
36598;BME280;22607;49.550;11.940;2022-12-05T03:19:36;96665.34;;;5.02;100.00
36598;BME280;22607;49.550;11.940;2022-12-05T03:22:07;96670.56;;;5.02;100.00
36598;BME280;22607;49.550;11.940;2022-12-05T03:24:35;96671.66;;;4.99;100.00
36598;BME280;22607;49.550;11.940;2022-12-05T03:29:54;96677.78;;;5.08;100.00
36598;BME280;22607;49.550;11.940;2022-12-05T03:35:17;96682.44;;;5.15;100.00
36598;BME280;22607;49.550;11.940;2022-12-05T03:37:46;96678.50;;;5.01;100.00
36598;BME280;22607;49.550;11.940;2022-12-05T03:42:43;96674.25;;;4.99;100.00
36598;BME280;22607;49.550;11.940;2022-12-05T03:45:15;96679.44;;;5.09;100.00
36598;BME280;22607;49.550;11.940;2022-12-05T03:47:48;96682.59;;;5.03;100.00
36598;BME280;22607;49.550;11.940;2022-12-05T03:50:21;96673.22;;;5.20;100.00
36598;BME280;22607;49.550;11.940;2022-12-05T03:52:54;96675.09;;;5.00;100.00
36598;BME280;22607;49.550;11.940;2022-12-05T03:55:43;96675.38;;;4.97;100.00
36598;BME280;22607;49.550;11.940;2022-12-05T03:58:17;96674.38;;;5.08;100.00
36598;BME280;22607;49.550;11.940;2022-12-05T04:00:47;96685.59;;;5.08;100.00
36598;BME280;22607;49.550;11.940;2022-12-05T04:03:17;96690.66;;;5.10;100.00
36598;BME280;22607;49.550;11.940;2022-12-05T04:05:55;96691.50;;;5.10;100.00
36598;BME280;22607;49.550;11.940;2022-12-05T04:10:49;96676.72;;;5.01;100.00
36598;BME280;22607;49.550;11.940;2022-12-05T04:13:52;96689.03;;;4.99;100.00
36598;BME280;22607;49.550;11.940;2022-12-05T04:16:15;96694.81;;;5.03;100.00
36598;BME280;22607;49.550;11.940;2022-12-05T04:19:02;96685.06;;;5.05;100.00
36598;BME280;22607;49.550;11.940;2022-12-05T04:21:33;96685.19;;;5.03;100.00
36598;BME280;22607;49.550;11.940;2022-12-05T04:24:24;96678.75;;;5.07;100.00
36598;BME280;22607;49.550;11.940;2022-12-05T04:29:42;96680.44;;;4.98;100.00
36598;BME280;22607;49.550;11.940;2022-12-05T04:32:10;96675.75;;;5.12;100.00
36598;BME280;22607;49.550;11.940;2022-12-05T04:34:38;96681.47;;;5.16;100.00
36598;BME280;22607;49.550;11.940;2022-12-05T04:37:11;96691.06;;;5.15;100.00
36598;BME280;22607;49.550;11.940;2022-12-05T04:42:08;96721.91;;;5.10;100.00
36598;BME280;22607;49.550;11.940;2022-12-05T04:44:45;96716.69;;;5.10;100.00
36598;BME280;22607;49.550;11.940;2022-12-05T04:47:13;96717.56;;;4.91;100.00
36598;BME280;22607;49.550;11.940;2022-12-05T04:49:42;96735.63;;;4.92;100.00
36598;BME280;22607;49.550;11.940;2022-12-05T04:57:12;96745.50;;;4.89;100.00
36598;BME280;22607;49.550;11.940;2022-12-05T04:59:40;96739.50;;;4.88;100.00
36598;BME280;22607;49.550;11.940;2022-12-05T05:02:07;96750.31;;;4.93;100.00
36598;BME280;22607;49.550;11.940;2022-12-05T05:04:43;96741.13;;;4.89;100.00
36598;BME280;22607;49.550;11.940;2022-12-05T05:07:11;96745.38;;;4.90;100.00
36598;BME280;22607;49.550;11.940;2022-12-05T05:09:39;96740.28;;;4.98;100.00
36598;BME280;22607;49.550;11.940;2022-12-05T05:12:06;96748.66;;;4.92;100.00
36598;BME280;22607;49.550;11.940;2022-12-05T05:14:33;96747.97;;;4.80;100.00
36598;BME280;22607;49.550;11.940;2022-12-05T05:16:59;96754.84;;;4.81;100.00
36598;BME280;22607;49.550;11.940;2022-12-05T05:19:26;96758.09;;;4.73;100.00
36598;BME280;22607;49.550;11.940;2022-12-05T05:21:52;96753.44;;;4.97;100.00
36598;BME280;22607;49.550;11.940;2022-12-05T05:24:19;96753.00;;;5.02;100.00
36598;BME280;22607;49.550;11.940;2022-12-05T05:26:46;96756.19;;;4.95;100.00
36598;BME280;22607;49.550;11.940;2022-12-05T05:29:20;96751.66;;;5.07;100.00
36598;BME280;22607;49.550;11.940;2022-12-05T05:31:47;96753.31;;;4.98;100.00
36598;BME280;22607;49.550;11.940;2022-12-05T05:34:13;96753.03;;;4.82;100.00
36598;BME280;22607;49.550;11.940;2022-12-05T05:36:41;96761.28;;;4.77;100.00
36598;BME280;22607;49.550;11.940;2022-12-05T05:39:11;96760.44;;;4.77;100.00
36598;BME280;22607;49.550;11.940;2022-12-05T05:41:38;96758.50;;;4.89;100.00
36598;BME280;22607;49.550;11.940;2022-12-05T05:44:04;96766.03;;;5.11;100.00
36598;BME280;22607;49.550;11.940;2022-12-05T05:46:31;96767.56;;;4.84;100.00
36598;BME280;22607;49.550;11.940;2022-12-05T05:48:58;96769.78;;;4.69;100.00
36598;BME280;22607;49.550;11.940;2022-12-05T05:51:25;96767.56;;;4.45;100.00
36598;BME280;22607;49.550;11.940;2022-12-05T05:53:54;96772.75;;;4.55;100.00
36598;BME280;22607;49.550;11.940;2022-12-05T05:56:31;96769.47;;;4.72;100.00
36598;BME280;22607;49.550;11.940;2022-12-05T05:58:59;96776.47;;;4.82;100.00
36598;BME280;22607;49.550;11.940;2022-12-05T06:01:26;96775.38;;;4.75;100.00
36598;BME280;22607;49.550;11.940;2022-12-05T06:03:52;96770.56;;;4.70;100.00
36598;BME280;22607;49.550;11.940;2022-12-05T06:06:20;96774.25;;;4.87;100.00
36598;BME280;22607;49.550;11.940;2022-12-05T06:08:47;96776.31;;;4.64;100.00
36598;BME280;22607;49.550;11.940;2022-12-05T06:11:17;96783.84;;;4.67;100.00
36598;BME280;22607;49.550;11.940;2022-12-05T06:13:52;96784.53;;;4.69;100.00
36598;BME280;22607;49.550;11.940;2022-12-05T06:16:18;96797.94;;;4.64;100.00
36598;BME280;22607;49.550;11.940;2022-12-05T06:18:46;96785.09;;;4.63;100.00
36598;BME280;22607;49.550;11.940;2022-12-05T06:21:13;96788.09;;;4.58;100.00
36598;BME280;22607;49.550;11.940;2022-12-05T06:23:41;96797.13;;;4.54;100.00
36598;BME280;22607;49.550;11.940;2022-12-05T06:26:13;96796.03;;;4.66;100.00
36598;BME280;22607;49.550;11.940;2022-12-05T06:28:40;96793.84;;;4.52;100.00
36598;BME280;22607;49.550;11.940;2022-12-05T06:31:10;96798.25;;;4.61;100.00
36598;BME280;22607;49.550;11.940;2022-12-05T06:33:38;96791.34;;;4.40;100.00
36598;BME280;22607;49.550;11.940;2022-12-05T06:36:06;96797.38;;;4.41;100.00
36598;BME280;22607;49.550;11.940;2022-12-05T06:38:33;96800.28;;;4.47;100.00
36598;BME280;22607;49.550;11.940;2022-12-05T06:41:06;96806.16;;;4.59;100.00
36598;BME280;22607;49.550;11.940;2022-12-05T06:43:32;96804.47;;;4.39;100.00
36598;BME280;22607;49.550;11.940;2022-12-05T06:46:00;96808.72;;;4.30;100.00
36598;BME280;22607;49.550;11.940;2022-12-05T06:48:29;96801.50;;;4.43;100.00
36598;BME280;22607;49.550;11.940;2022-12-05T06:50:56;96805.81;;;4.23;100.00
36598;BME280;22607;49.550;11.940;2022-12-05T06:53:22;96807.97;;;4.08;100.00
36598;BME280;22607;49.550;11.940;2022-12-05T06:55:58;96800.09;;;4.39;100.00
36598;BME280;22607;49.550;11.940;2022-12-05T06:58:25;96812.28;;;4.29;100.00
36598;BME280;22607;49.550;11.940;2022-12-05T07:00:52;96805.56;;;4.36;100.00
36598;BME280;22607;49.550;11.940;2022-12-05T07:03:39;96821.72;;;4.30;100.00
36598;BME280;22607;49.550;11.940;2022-12-05T07:06:06;96808.88;;;4.38;100.00
36598;BME280;22607;49.550;11.940;2022-12-05T07:08:39;96820.16;;;4.17;100.00
36598;BME280;22607;49.550;11.940;2022-12-05T07:11:06;96833.66;;;4.42;100.00
36598;BME280;22607;49.550;11.940;2022-12-05T07:13:33;96827.91;;;4.49;100.00
36598;BME280;22607;49.550;11.940;2022-12-05T07:15:59;96836.22;;;4.32;100.00
36598;BME280;22607;49.550;11.940;2022-12-05T07:18:26;96837.88;;;4.33;100.00
36598;BME280;22607;49.550;11.940;2022-12-05T07:20:56;96839.53;;;4.44;100.00
36598;BME280;22607;49.550;11.940;2022-12-05T07:23:39;96845.56;;;4.55;100.00
36598;BME280;22607;49.550;11.940;2022-12-05T07:26:07;96846.53;;;4.54;100.00
36598;BME280;22607;49.550;11.940;2022-12-05T07:28:36;96858.53;;;4.35;100.00
36598;BME280;22607;49.550;11.940;2022-12-05T07:31:03;96866.34;;;4.35;100.00
36598;BME280;22607;49.550;11.940;2022-12-05T07:33:30;96876.06;;;4.43;100.00
36598;BME280;22607;49.550;11.940;2022-12-05T07:36:00;96874.06;;;4.46;100.00
36598;BME280;22607;49.550;11.940;2022-12-05T07:38:27;96874.59;;;4.50;100.00
36598;BME280;22607;49.550;11.940;2022-12-05T07:40:54;96884.75;;;4.53;100.00
36598;BME280;22607;49.550;11.940;2022-12-05T07:43:21;96886.19;;;4.36;100.00
36598;BME280;22607;49.550;11.940;2022-12-05T07:45:48;96883.25;;;4.19;100.00
36598;BME280;22607;49.550;11.940;2022-12-05T07:48:15;96883.06;;;4.42;100.00
36598;BME280;22607;49.550;11.940;2022-12-05T07:50:44;96878.69;;;4.43;100.00
36598;BME280;22607;49.550;11.940;2022-12-05T07:53:10;96886.34;;;4.44;100.00
36598;BME280;22607;49.550;11.940;2022-12-05T07:55:38;96889.06;;;4.33;100.00
36598;BME280;22607;49.550;11.940;2022-12-05T07:58:04;96894.16;;;4.44;100.00
36598;BME280;22607;49.550;11.940;2022-12-05T08:00:31;96897.53;;;4.35;100.00
36598;BME280;22607;49.550;11.940;2022-12-05T08:02:57;96901.41;;;4.41;100.00
36598;BME280;22607;49.550;11.940;2022-12-05T08:05:24;96905.66;;;4.42;100.00
36598;BME280;22607;49.550;11.940;2022-12-05T08:07:50;96906.59;;;4.41;100.00
36598;BME280;22607;49.550;11.940;2022-12-05T08:10:17;96924.94;;;4.39;100.00
36598;BME280;22607;49.550;11.940;2022-12-05T08:12:43;96921.25;;;4.42;100.00
36598;BME280;22607;49.550;11.940;2022-12-05T08:15:09;96925.66;;;4.41;100.00
36598;BME280;22607;49.550;11.940;2022-12-05T08:17:36;96906.97;;;4.36;100.00
36598;BME280;22607;49.550;11.940;2022-12-05T08:20:02;96917.41;;;4.87;100.00
36598;BME280;22607;49.550;11.940;2022-12-05T08:22:29;96922.22;;;4.41;100.00
36598;BME280;22607;49.550;11.940;2022-12-05T08:24:55;96931.03;;;4.28;100.00
36598;BME280;22607;49.550;11.940;2022-12-05T08:27:24;96937.59;;;4.23;100.00
36598;BME280;22607;49.550;11.940;2022-12-05T08:29:50;96940.72;;;4.47;100.00
36598;BME280;22607;49.550;11.940;2022-12-05T08:32:18;96949.66;;;4.24;100.00
36598;BME280;22607;49.550;11.940;2022-12-05T08:34:44;96945.41;;;4.23;100.00
36598;BME280;22607;49.550;11.940;2022-12-05T08:37:11;96942.72;;;4.34;100.00
36598;BME280;22607;49.550;11.940;2022-12-05T08:39:37;96945.03;;;4.06;100.00
36598;BME280;22607;49.550;11.940;2022-12-05T08:42:04;96955.28;;;4.29;100.00
36598;BME280;22607;49.550;11.940;2022-12-05T08:44:30;96961.88;;;4.33;100.00
36598;BME280;22607;49.550;11.940;2022-12-05T08:46:57;96961.50;;;4.16;100.00
36598;BME280;22607;49.550;11.940;2022-12-05T08:49:23;96967.56;;;4.27;100.00
36598;BME280;22607;49.550;11.940;2022-12-05T08:51:49;96961.00;;;4.23;100.00
36598;BME280;22607;49.550;11.940;2022-12-05T08:54:16;96970.88;;;4.29;100.00
36598;BME280;22607;49.550;11.940;2022-12-05T08:56:42;96968.66;;;4.24;100.00
36598;BME280;22607;49.550;11.940;2022-12-05T08:59:17;96985.09;;;4.25;100.00
36598;BME280;22607;49.550;11.940;2022-12-05T09:01:43;96985.72;;;4.38;100.00
36598;BME280;22607;49.550;11.940;2022-12-05T09:04:10;96989.81;;;4.41;100.00
36598;BME280;22607;49.550;11.940;2022-12-05T09:06:38;96990.53;;;4.22;100.00
36598;BME280;22607;49.550;11.940;2022-12-05T09:09:06;96991.19;;;4.14;100.00
36598;BME280;22607;49.550;11.940;2022-12-05T09:11:34;96993.84;;;4.24;100.00
36598;BME280;22607;49.550;11.940;2022-12-05T09:14:01;96999.53;;;4.17;100.00
36598;BME280;22607;49.550;11.940;2022-12-05T09:16:31;96993.59;;;4.05;100.00
36598;BME280;22607;49.550;11.940;2022-12-05T09:19:14;96991.13;;;4.04;100.00
36598;BME280;22607;49.550;11.940;2022-12-05T09:21:41;97001.66;;;4.02;100.00
36598;BME280;22607;49.550;11.940;2022-12-05T09:24:10;96999.28;;;4.20;100.00
36598;BME280;22607;49.550;11.940;2022-12-05T09:26:36;97006.84;;;4.24;100.00
36598;BME280;22607;49.550;11.940;2022-12-05T09:29:03;97012.81;;;4.14;100.00
36598;BME280;22607;49.550;11.940;2022-12-05T09:31:29;97010.53;;;4.21;100.00
36598;BME280;22607;49.550;11.940;2022-12-05T09:33:56;97011.09;;;4.25;100.00
36598;BME280;22607;49.550;11.940;2022-12-05T09:36:23;97007.91;;;4.42;100.00
36598;BME280;22607;49.550;11.940;2022-12-05T09:38:51;97001.56;;;4.14;100.00
36598;BME280;22607;49.550;11.940;2022-12-05T09:44:25;97007.09;;;4.20;100.00
36598;BME280;22607;49.550;11.940;2022-12-05T09:46:55;97010.56;;;4.31;100.00
36598;BME280;22607;49.550;11.940;2022-12-05T09:49:31;96998.84;;;4.37;100.00
36598;BME280;22607;49.550;11.940;2022-12-05T09:51:59;97005.97;;;4.35;100.00
36598;BME280;22607;49.550;11.940;2022-12-05T09:54:25;96996.75;;;4.30;100.00
36598;BME280;22607;49.550;11.940;2022-12-05T09:56:52;96996.34;;;4.35;100.00
36598;BME280;22607;49.550;11.940;2022-12-05T09:59:21;97003.97;;;4.27;100.00
36598;BME280;22607;49.550;11.940;2022-12-05T10:01:53;97001.41;;;4.58;100.00
36598;BME280;22607;49.550;11.940;2022-12-05T10:09:51;96991.75;;;4.17;100.00
36598;BME280;22607;49.550;11.940;2022-12-05T10:15:10;96991.94;;;4.26;100.00
36598;BME280;22607;49.550;11.940;2022-12-05T10:17:41;96992.81;;;4.15;100.00
36598;BME280;22607;49.550;11.940;2022-12-05T10:20:10;96989.94;;;4.39;100.00
36598;BME280;22607;49.550;11.940;2022-12-05T10:22:46;96991.88;;;3.94;100.00
36598;BME280;22607;49.550;11.940;2022-12-05T10:25:13;96975.72;;;4.12;100.00
36598;BME280;22607;49.550;11.940;2022-12-05T10:27:48;96977.47;;;4.33;100.00
36598;BME280;22607;49.550;11.940;2022-12-05T10:30:17;96981.50;;;4.16;100.00
36598;BME280;22607;49.550;11.940;2022-12-05T10:32:52;96981.50;;;4.16;100.00
36598;BME280;22607;49.550;11.940;2022-12-05T10:35:21;96988.75;;;4.43;100.00
36598;BME280;22607;49.550;11.940;2022-12-05T10:37:51;96977.31;;;4.56;100.00
36598;BME280;22607;49.550;11.940;2022-12-05T10:40:19;96981.63;;;4.45;100.00
36598;BME280;22607;49.550;11.940;2022-12-05T10:42:46;96980.88;;;4.65;100.00
36598;BME280;22607;49.550;11.940;2022-12-05T10:45:14;96981.94;;;4.52;100.00
36598;BME280;22607;49.550;11.940;2022-12-05T10:47:42;96981.06;;;4.42;100.00
36598;BME280;22607;49.550;11.940;2022-12-05T10:50:16;96992.03;;;4.45;100.00
36598;BME280;22607;49.550;11.940;2022-12-05T10:52:45;96981.91;;;4.42;100.00
36598;BME280;22607;49.550;11.940;2022-12-05T10:55:13;96981.84;;;4.64;100.00
36598;BME280;22607;49.550;11.940;2022-12-05T10:57:41;96976.00;;;4.71;100.00
36598;BME280;22607;49.550;11.940;2022-12-05T11:00:08;96979.81;;;4.67;100.00
36598;BME280;22607;49.550;11.940;2022-12-05T11:02:35;96969.31;;;4.47;100.00
36598;BME280;22607;49.550;11.940;2022-12-05T11:05:03;96973.22;;;4.63;100.00
36598;BME280;22607;49.550;11.940;2022-12-05T11:07:31;96976.16;;;4.49;100.00
36598;BME280;22607;49.550;11.940;2022-12-05T11:09:58;96975.44;;;4.68;100.00
36598;BME280;22607;49.550;11.940;2022-12-05T11:14:58;96972.13;;;4.66;100.00
36598;BME280;22607;49.550;11.940;2022-12-05T11:17:37;96970.75;;;4.62;100.00
36598;BME280;22607;49.550;11.940;2022-12-05T11:22:46;96967.44;;;4.28;100.00
36598;BME280;22607;49.550;11.940;2022-12-05T11:27:49;96961.47;;;4.38;100.00
36598;BME280;22607;49.550;11.940;2022-12-05T11:30:21;96958.22;;;4.45;100.00
36598;BME280;22607;49.550;11.940;2022-12-05T11:32:48;96952.94;;;4.57;100.00
36598;BME280;22607;49.550;11.940;2022-12-05T11:37:55;96953.25;;;4.64;100.00
36598;BME280;22607;49.550;11.940;2022-12-05T11:43:06;96959.81;;;4.68;100.00
36598;BME280;22607;49.550;11.940;2022-12-05T11:46:21;96953.25;;;4.73;100.00
36598;BME280;22607;49.550;11.940;2022-12-05T11:56:30;96956.75;;;4.53;100.00
36598;BME280;22607;49.550;11.940;2022-12-05T12:01:34;96957.25;;;4.78;100.00
36598;BME280;22607;49.550;11.940;2022-12-05T12:09:35;96963.34;;;4.57;100.00
36598;BME280;22607;49.550;11.940;2022-12-05T12:15:06;96958.44;;;4.64;100.00
36598;BME280;22607;49.550;11.940;2022-12-05T12:17:51;96960.31;;;4.52;100.00
36598;BME280;22607;49.550;11.940;2022-12-05T12:20:28;96963.50;;;4.34;100.00
36598;BME280;22607;49.550;11.940;2022-12-05T12:33:10;96950.28;;;4.47;100.00
36598;BME280;22607;49.550;11.940;2022-12-05T12:40:48;96960.72;;;4.26;100.00
36598;BME280;22607;49.550;11.940;2022-12-05T12:51:25;96941.31;;;4.30;100.00
36598;BME280;22607;49.550;11.940;2022-12-05T12:56:47;96942.53;;;4.26;100.00
36598;BME280;22607;49.550;11.940;2022-12-05T13:01:49;96948.28;;;3.98;100.00
36598;BME280;22607;49.550;11.940;2022-12-05T13:04:29;96955.19;;;4.09;100.00
36598;BME280;22607;49.550;11.940;2022-12-05T13:06:58;96950.16;;;3.96;100.00
36598;BME280;22607;49.550;11.940;2022-12-05T13:09:27;96949.91;;;3.78;100.00
36598;BME280;22607;49.550;11.940;2022-12-05T13:11:56;96950.94;;;3.87;100.00
36598;BME280;22607;49.550;11.940;2022-12-05T13:14:24;96946.31;;;3.90;100.00
36598;BME280;22607;49.550;11.940;2022-12-05T13:16:53;96946.75;;;3.96;100.00
36598;BME280;22607;49.550;11.940;2022-12-05T13:22:06;96952.06;;;3.51;100.00
36598;BME280;22607;49.550;11.940;2022-12-05T13:24:33;96949.53;;;3.61;100.00
36598;BME280;22607;49.550;11.940;2022-12-05T13:27:01;96959.13;;;3.49;100.00
36598;BME280;22607;49.550;11.940;2022-12-05T13:32:32;96963.22;;;3.63;100.00
36598;BME280;22607;49.550;11.940;2022-12-05T13:37:31;96957.31;;;3.61;100.00
36598;BME280;22607;49.550;11.940;2022-12-05T13:40:19;96963.03;;;3.55;100.00
36598;BME280;22607;49.550;11.940;2022-12-05T13:43:06;96975.69;;;3.70;100.00
36598;BME280;22607;49.550;11.940;2022-12-05T13:45:33;96975.19;;;3.76;100.00
36598;BME280;22607;49.550;11.940;2022-12-05T13:48:05;96977.53;;;3.79;100.00
36598;BME280;22607;49.550;11.940;2022-12-05T13:50:38;96977.63;;;3.67;100.00
36598;BME280;22607;49.550;11.940;2022-12-05T14:06:13;96982.50;;;3.49;100.00
36598;BME280;22607;49.550;11.940;2022-12-05T14:08:59;96985.50;;;3.33;100.00
36598;BME280;22607;49.550;11.940;2022-12-05T14:11:25;96980.66;;;3.40;100.00
36598;BME280;22607;49.550;11.940;2022-12-05T14:13:54;96969.47;;;3.39;100.00
36598;BME280;22607;49.550;11.940;2022-12-05T14:19:03;96974.69;;;3.61;100.00
36598;BME280;22607;49.550;11.940;2022-12-05T14:21:35;96982.38;;;3.51;100.00
36598;BME280;22607;49.550;11.940;2022-12-05T14:39:43;96974.31;;;3.65;100.00
36598;BME280;22607;49.550;11.940;2022-12-05T14:44:53;96974.25;;;3.56;100.00
36598;BME280;22607;49.550;11.940;2022-12-05T14:47:24;96975.78;;;3.47;100.00
36598;BME280;22607;49.550;11.940;2022-12-05T14:49:58;96982.59;;;3.59;100.00
36598;BME280;22607;49.550;11.940;2022-12-05T14:52:29;96974.47;;;3.52;100.00
36598;BME280;22607;49.550;11.940;2022-12-05T14:55:00;96978.03;;;3.51;100.00
36598;BME280;22607;49.550;11.940;2022-12-05T14:57:27;96975.44;;;3.51;100.00
36598;BME280;22607;49.550;11.940;2022-12-05T14:59:56;96982.81;;;3.67;100.00
36598;BME280;22607;49.550;11.940;2022-12-05T15:02:25;96981.09;;;3.78;100.00
36598;BME280;22607;49.550;11.940;2022-12-05T15:12:37;96978.16;;;3.50;100.00
36598;BME280;22607;49.550;11.940;2022-12-05T15:15:14;96982.53;;;3.71;100.00
36598;BME280;22607;49.550;11.940;2022-12-05T15:17:49;96975.59;;;3.71;100.00
36598;BME280;22607;49.550;11.940;2022-12-05T15:20:28;96975.13;;;3.66;100.00
36598;BME280;22607;49.550;11.940;2022-12-05T15:23:36;96979.09;;;3.49;100.00
36598;BME280;22607;49.550;11.940;2022-12-05T15:25:51;96972.50;;;3.45;100.00
36598;BME280;22607;49.550;11.940;2022-12-05T15:28:24;96969.63;;;3.59;100.00
36598;BME280;22607;49.550;11.940;2022-12-05T15:30:54;96979.50;;;3.65;100.00
36598;BME280;22607;49.550;11.940;2022-12-05T15:33:22;96975.25;;;3.64;100.00
36598;BME280;22607;49.550;11.940;2022-12-05T15:35:50;96975.03;;;3.56;100.00
36598;BME280;22607;49.550;11.940;2022-12-05T15:38:21;96980.50;;;3.53;100.00
36598;BME280;22607;49.550;11.940;2022-12-05T15:43:27;96985.09;;;3.82;100.00
36598;BME280;22607;49.550;11.940;2022-12-05T15:48:40;96983.78;;;3.55;100.00
36598;BME280;22607;49.550;11.940;2022-12-05T15:51:07;96989.44;;;3.60;100.00